Mahtowa, Minnesota
Current Conditions -  °F | °C
As of 12:14 AM on Wednesday 28 Jan 2015 (Local Time) from KMZH Reporting Station
Overcast Overcast  
Wind Chill: 21°   Ceiling: 1100
Heat Index: 28°   Visibility: 10mi
Dew Point: 23°   Wind: 7mph
Humidity: 80%   Direction: 200°SSW
Pressure: 30.07"   Gusts: NA
Location:  46.5379°N, 92.621°W
Report Text: KMZH 280614Z AUTO 20006KT 10SM OVC011 M02/M05 A3007 RMK AO2
Loading
Personal Weather Stations






























Interactive Weather Map New forecast layout! Learn more

10-Day Weather Forecast

Advertisements
Track Severe Weather on mobile